sensor_id;sensor_type;location;lat;lon;timestamp;temperature;humidity
69084;SHT31;56185;48.526;9.044;2023-06-22T00:00:11;22.51;73.62
69084;SHT31;56185;48.526;9.044;2023-06-22T00:02:36;22.42;73.85
69084;SHT31;56185;48.526;9.044;2023-06-22T00:05:01;22.41;74.13
69084;SHT31;56185;48.526;9.044;2023-06-22T00:07:27;22.51;74.04
69084;SHT31;56185;48.526;9.044;2023-06-22T00:09:52;22.34;74.05
69084;SHT31;56185;48.526;9.044;2023-06-22T00:12:17;22.24;74.22
69084;SHT31;56185;48.526;9.044;2023-06-22T00:14:42;22.22;74.42
69084;SHT31;56185;48.526;9.044;2023-06-22T00:17:08;22.20;74.65
69084;SHT31;56185;48.526;9.044;2023-06-22T00:19:33;22.13;74.69
69084;SHT31;56185;48.526;9.044;2023-06-22T00:21:58;22.25;74.27
69084;SHT31;56185;48.526;9.044;2023-06-22T00:24:24;22.18;74.51
69084;SHT31;56185;48.526;9.044;2023-06-22T00:26:49;22.03;75.31
69084;SHT31;56185;48.526;9.044;2023-06-22T00:29:14;21.97;75.71
69084;SHT31;56185;48.526;9.044;2023-06-22T00:31:40;22.01;75.35
69084;SHT31;56185;48.526;9.044;2023-06-22T00:34:05;21.96;75.47
69084;SHT31;56185;48.526;9.044;2023-06-22T00:36:30;21.89;75.76
69084;SHT31;56185;48.526;9.044;2023-06-22T00:38:55;21.94;75.70
69084;SHT31;56185;48.526;9.044;2023-06-22T00:41:21;21.72;76.05
69084;SHT31;56185;48.526;9.044;2023-06-22T00:43:46;21.69;76.04
69084;SHT31;56185;48.526;9.044;2023-06-22T00:46:11;21.93;75.72
69084;SHT31;56185;48.526;9.044;2023-06-22T00:48:36;22.04;74.74
69084;SHT31;56185;48.526;9.044;2023-06-22T00:51:02;22.04;74.83
69084;SHT31;56185;48.526;9.044;2023-06-22T00:53:27;21.92;75.32
69084;SHT31;56185;48.526;9.044;2023-06-22T00:55:53;21.84;75.67
69084;SHT31;56185;48.526;9.044;2023-06-22T00:58:18;22.04;75.36
69084;SHT31;56185;48.526;9.044;2023-06-22T01:00:44;21.90;75.41
69084;SHT31;56185;48.526;9.044;2023-06-22T01:03:09;21.76;75.87
69084;SHT31;56185;48.526;9.044;2023-06-22T01:05:35;21.80;75.98
69084;SHT31;56185;48.526;9.044;2023-06-22T01:11:03;21.86;75.32
69084;SHT31;56185;48.526;9.044;2023-06-22T01:13:37;21.83;75.09
69084;SHT31;56185;48.526;9.044;2023-06-22T01:16:14;21.73;75.52
69084;SHT31;56185;48.526;9.044;2023-06-22T01:18:43;22.03;73.95
69084;SHT31;56185;48.526;9.044;2023-06-22T01:21:13;21.80;75.40
69084;SHT31;56185;48.526;9.044;2023-06-22T01:24:10;21.67;76.23
69084;SHT31;56185;48.526;9.044;2023-06-22T01:29:17;21.42;76.77
69084;SHT31;56185;48.526;9.044;2023-06-22T01:31:44;21.35;77.04
69084;SHT31;56185;48.526;9.044;2023-06-22T01:34:11;21.22;77.46
69084;SHT31;56185;48.526;9.044;2023-06-22T01:36:38;21.29;77.63
69084;SHT31;56185;48.526;9.044;2023-06-22T01:39:04;21.29;77.24
69084;SHT31;56185;48.526;9.044;2023-06-22T01:41:34;21.12;77.60
69084;SHT31;56185;48.526;9.044;2023-06-22T01:44:00;21.43;76.91
69084;SHT31;56185;48.526;9.044;2023-06-22T01:46:26;21.31;76.63
69084;SHT31;56185;48.526;9.044;2023-06-22T01:48:52;21.24;77.75
69084;SHT31;56185;48.526;9.044;2023-06-22T01:51:17;21.19;77.66
69084;SHT31;56185;48.526;9.044;2023-06-22T01:53:43;21.14;77.93
69084;SHT31;56185;48.526;9.044;2023-06-22T01:56:08;21.14;78.25
69084;SHT31;56185;48.526;9.044;2023-06-22T01:58:37;21.19;77.94
69084;SHT31;56185;48.526;9.044;2023-06-22T02:01:12;21.06;78.64
69084;SHT31;56185;48.526;9.044;2023-06-22T02:03:42;20.95;78.98
69084;SHT31;56185;48.526;9.044;2023-06-22T02:06:16;21.01;78.56
69084;SHT31;56185;48.526;9.044;2023-06-22T02:08:47;20.88;79.14
69084;SHT31;56185;48.526;9.044;2023-06-22T02:11:15;20.92;79.00
69084;SHT31;56185;48.526;9.044;2023-06-22T02:13:41;20.91;79.07
69084;SHT31;56185;48.526;9.044;2023-06-22T02:16:07;20.90;79.22
69084;SHT31;56185;48.526;9.044;2023-06-22T02:18:32;20.94;79.11
69084;SHT31;56185;48.526;9.044;2023-06-22T02:20:57;20.87;79.19
69084;SHT31;56185;48.526;9.044;2023-06-22T02:23:23;20.88;78.98
69084;SHT31;56185;48.526;9.044;2023-06-22T02:25:48;20.80;79.68
69084;SHT31;56185;48.526;9.044;2023-06-22T02:28:14;20.66;79.80
69084;SHT31;56185;48.526;9.044;2023-06-22T02:30:39;20.61;80.05
69084;SHT31;56185;48.526;9.044;2023-06-22T02:33:04;20.64;79.84
69084;SHT31;56185;48.526;9.044;2023-06-22T02:35:29;20.53;80.17
69084;SHT31;56185;48.526;9.044;2023-06-22T02:37:55;20.47;80.56
69084;SHT31;56185;48.526;9.044;2023-06-22T02:40:20;20.47;80.71
69084;SHT31;56185;48.526;9.044;2023-06-22T02:42:45;20.51;80.53
69084;SHT31;56185;48.526;9.044;2023-06-22T02:45:10;20.40;80.71
69084;SHT31;56185;48.526;9.044;2023-06-22T02:47:36;20.37;80.68
69084;SHT31;56185;48.526;9.044;2023-06-22T02:50:01;20.46;80.45
69084;SHT31;56185;48.526;9.044;2023-06-22T02:52:26;20.67;79.83
69084;SHT31;56185;48.526;9.044;2023-06-22T02:54:52;20.64;79.78
69084;SHT31;56185;48.526;9.044;2023-06-22T02:57:17;20.48;80.29
69084;SHT31;56185;48.526;9.044;2023-06-22T02:59:42;20.47;80.07
69084;SHT31;56185;48.526;9.044;2023-06-22T03:02:08;20.44;79.69
69084;SHT31;56185;48.526;9.044;2023-06-22T03:04:34;20.58;79.14
69084;SHT31;56185;48.526;9.044;2023-06-22T03:06:59;20.80;78.57
69084;SHT31;56185;48.526;9.044;2023-06-22T03:09:25;20.60;79.35
69084;SHT31;56185;48.526;9.044;2023-06-22T03:11:50;20.58;79.32
69084;SHT31;56185;48.526;9.044;2023-06-22T03:14:15;20.53;79.45
69084;SHT31;56185;48.526;9.044;2023-06-22T03:16:40;20.41;79.98
69084;SHT31;56185;48.526;9.044;2023-06-22T03:19:06;20.25;80.80
69084;SHT31;56185;48.526;9.044;2023-06-22T03:21:31;20.20;80.68
69084;SHT31;56185;48.526;9.044;2023-06-22T03:23:56;20.41;80.52
69084;SHT31;56185;48.526;9.044;2023-06-22T03:26:22;20.53;79.50
69084;SHT31;56185;48.526;9.044;2023-06-22T03:28:47;20.39;80.19
69084;SHT31;56185;48.526;9.044;2023-06-22T03:31:12;20.13;81.09
69084;SHT31;56185;48.526;9.044;2023-06-22T03:33:37;20.09;81.55
69084;SHT31;56185;48.526;9.044;2023-06-22T03:36:03;20.19;80.86
69084;SHT31;56185;48.526;9.044;2023-06-22T03:38:28;20.13;81.06
69084;SHT31;56185;48.526;9.044;2023-06-22T03:40:54;20.19;80.94
69084;SHT31;56185;48.526;9.044;2023-06-22T03:43:19;20.39;80.15
69084;SHT31;56185;48.526;9.044;2023-06-22T03:45:44;20.29;80.65
69084;SHT31;56185;48.526;9.044;2023-06-22T03:48:09;20.23;80.93
69084;SHT31;56185;48.526;9.044;2023-06-22T03:50:35;20.26;81.08
69084;SHT31;56185;48.526;9.044;2023-06-22T03:53:00;20.15;81.23
69084;SHT31;56185;48.526;9.044;2023-06-22T03:55:25;20.12;80.93
69084;SHT31;56185;48.526;9.044;2023-06-22T03:57:50;20.20;80.41
69084;SHT31;56185;48.526;9.044;2023-06-22T04:00:16;20.29;79.49
69084;SHT31;56185;48.526;9.044;2023-06-22T04:02:42;20.33;79.94
69084;SHT31;56185;48.526;9.044;2023-06-22T04:05:09;20.36;79.23
69084;SHT31;56185;48.526;9.044;2023-06-22T04:07:34;20.37;78.85
69084;SHT31;56185;48.526;9.044;2023-06-22T04:09:59;20.53;78.21
69084;SHT31;56185;48.526;9.044;2023-06-22T04:12:25;20.63;77.92
69084;SHT31;56185;48.526;9.044;2023-06-22T04:14:50;20.53;78.46
69084;SHT31;56185;48.526;9.044;2023-06-22T04:17:15;20.51;78.55
69084;SHT31;56185;48.526;9.044;2023-06-22T04:19:41;20.53;78.61
69084;SHT31;56185;48.526;9.044;2023-06-22T04:22:06;20.39;79.31
69084;SHT31;56185;48.526;9.044;2023-06-22T04:24:31;20.39;79.48
69084;SHT31;56185;48.526;9.044;2023-06-22T04:26:57;20.39;79.87
69084;SHT31;56185;48.526;9.044;2023-06-22T04:29:22;20.47;79.40
69084;SHT31;56185;48.526;9.044;2023-06-22T04:31:47;20.43;79.36
69084;SHT31;56185;48.526;9.044;2023-06-22T04:34:12;20.56;78.87
69084;SHT31;56185;48.526;9.044;2023-06-22T04:36:40;20.58;78.10
69084;SHT31;56185;48.526;9.044;2023-06-22T04:39:10;20.66;77.94
69084;SHT31;56185;48.526;9.044;2023-06-22T04:41:36;20.64;78.23
69084;SHT31;56185;48.526;9.044;2023-06-22T04:44:02;20.67;78.23
69084;SHT31;56185;48.526;9.044;2023-06-22T04:46:27;20.67;78.62
69084;SHT31;56185;48.526;9.044;2023-06-22T04:48:52;20.68;78.54
69084;SHT31;56185;48.526;9.044;2023-06-22T04:51:17;20.67;78.61
69084;SHT31;56185;48.526;9.044;2023-06-22T04:53:43;20.83;78.03
69084;SHT31;56185;48.526;9.044;2023-06-22T04:56:08;20.83;77.90
69084;SHT31;56185;48.526;9.044;2023-06-22T04:58:33;20.85;77.85
69084;SHT31;56185;48.526;9.044;2023-06-22T05:00:59;20.84;78.47
69084;SHT31;56185;48.526;9.044;2023-06-22T05:03:25;20.90;78.14
69084;SHT31;56185;48.526;9.044;2023-06-22T05:05:52;20.91;77.51
69084;SHT31;56185;48.526;9.044;2023-06-22T05:08:17;20.99;77.46
69084;SHT31;56185;48.526;9.044;2023-06-22T05:10:42;21.09;77.43
69084;SHT31;56185;48.526;9.044;2023-06-22T05:13:07;21.19;76.75
69084;SHT31;56185;48.526;9.044;2023-06-22T05:15:33;21.12;77.37
69084;SHT31;56185;48.526;9.044;2023-06-22T05:17:58;21.14;77.34
69084;SHT31;56185;48.526;9.044;2023-06-22T05:20:23;21.19;76.80
69084;SHT31;56185;48.526;9.044;2023-06-22T05:22:48;21.08;76.91
69084;SHT31;56185;48.526;9.044;2023-06-22T05:25:14;21.15;77.09
69084;SHT31;56185;48.526;9.044;2023-06-22T05:27:39;21.25;76.52
69084;SHT31;56185;48.526;9.044;2023-06-22T05:30:08;21.28;77.00
69084;SHT31;56185;48.526;9.044;2023-06-22T05:32:34;21.19;77.89
69084;SHT31;56185;48.526;9.044;2023-06-22T05:34:59;21.32;77.05
69084;SHT31;56185;48.526;9.044;2023-06-22T05:37:25;21.35;76.54
69084;SHT31;56185;48.526;9.044;2023-06-22T05:39:50;21.38;77.30
69084;SHT31;56185;48.526;9.044;2023-06-22T05:42:15;21.47;77.04
69084;SHT31;56185;48.526;9.044;2023-06-22T05:44:41;21.42;77.17
69084;SHT31;56185;48.526;9.044;2023-06-22T05:47:06;21.52;76.08
69084;SHT31;56185;48.526;9.044;2023-06-22T05:49:31;21.56;75.98
69084;SHT31;56185;48.526;9.044;2023-06-22T05:51:59;21.57;76.22
69084;SHT31;56185;48.526;9.044;2023-06-22T05:54:24;21.64;75.95
69084;SHT31;56185;48.526;9.044;2023-06-22T05:56:49;21.66;76.15
69084;SHT31;56185;48.526;9.044;2023-06-22T05:59:14;21.60;76.22
69084;SHT31;56185;48.526;9.044;2023-06-22T06:01:40;21.57;76.69
69084;SHT31;56185;48.526;9.044;2023-06-22T06:04:05;21.57;76.92
69084;SHT31;56185;48.526;9.044;2023-06-22T06:06:31;21.73;76.18
69084;SHT31;56185;48.526;9.044;2023-06-22T06:08:56;21.69;77.02
69084;SHT31;56185;48.526;9.044;2023-06-22T06:11:23;21.73;76.21
69084;SHT31;56185;48.526;9.044;2023-06-22T06:13:48;21.79;75.92
69084;SHT31;56185;48.526;9.044;2023-06-22T06:16:13;21.86;76.31
69084;SHT31;56185;48.526;9.044;2023-06-22T06:18:38;21.89;76.36
69084;SHT31;56185;48.526;9.044;2023-06-22T06:21:04;21.94;76.42
69084;SHT31;56185;48.526;9.044;2023-06-22T06:23:29;22.03;75.27
69084;SHT31;56185;48.526;9.044;2023-06-22T06:25:54;22.03;76.08
69084;SHT31;56185;48.526;9.044;2023-06-22T06:28:19;22.08;76.15
69084;SHT31;56185;48.526;9.044;2023-06-22T06:30:45;22.15;75.60
69084;SHT31;56185;48.526;9.044;2023-06-22T06:33:10;22.17;75.78
69084;SHT31;56185;48.526;9.044;2023-06-22T06:35:35;22.24;74.60
69084;SHT31;56185;48.526;9.044;2023-06-22T06:38:00;22.27;75.85
69084;SHT31;56185;48.526;9.044;2023-06-22T06:40:26;22.38;74.39
69084;SHT31;56185;48.526;9.044;2023-06-22T06:42:51;22.49;74.01
69084;SHT31;56185;48.526;9.044;2023-06-22T06:45:21;22.55;74.01
69084;SHT31;56185;48.526;9.044;2023-06-22T06:47:46;22.56;73.22
69084;SHT31;56185;48.526;9.044;2023-06-22T06:50:12;22.53;74.11
69084;SHT31;56185;48.526;9.044;2023-06-22T06:52:38;22.63;73.07
69084;SHT31;56185;48.526;9.044;2023-06-22T06:55:03;22.72;73.45
69084;SHT31;56185;48.526;9.044;2023-06-22T06:57:29;22.83;72.26
69084;SHT31;56185;48.526;9.044;2023-06-22T06:59:55;22.95;71.13
69084;SHT31;56185;48.526;9.044;2023-06-22T07:02:35;22.95;71.81
69084;SHT31;56185;48.526;9.044;2023-06-22T07:05:04;23.09;70.65
69084;SHT31;56185;48.526;9.044;2023-06-22T07:07:30;23.13;71.33
69084;SHT31;56185;48.526;9.044;2023-06-22T07:10:00;23.23;69.82
69084;SHT31;56185;48.526;9.044;2023-06-22T07:12:28;23.23;69.26
69084;SHT31;56185;48.526;9.044;2023-06-22T07:14:54;23.19;70.84
69084;SHT31;56185;48.526;9.044;2023-06-22T07:17:19;23.36;69.88
69084;SHT31;56185;48.526;9.044;2023-06-22T07:19:45;23.44;68.95
69084;SHT31;56185;48.526;9.044;2023-06-22T07:22:10;23.54;68.46
69084;SHT31;56185;48.526;9.044;2023-06-22T07:24:36;23.50;69.08
69084;SHT31;56185;48.526;9.044;2023-06-22T07:27:01;23.64;68.17
69084;SHT31;56185;48.526;9.044;2023-06-22T07:29:26;23.60;69.01
69084;SHT31;56185;48.526;9.044;2023-06-22T07:31:52;23.72;69.08
69084;SHT31;56185;48.526;9.044;2023-06-22T07:34:18;23.74;69.23
69084;SHT31;56185;48.526;9.044;2023-06-22T07:36:44;23.82;68.14
69084;SHT31;56185;48.526;9.044;2023-06-22T07:39:09;24.01;67.66
69084;SHT31;56185;48.526;9.044;2023-06-22T07:41:35;24.05;68.25
69084;SHT31;56185;48.526;9.044;2023-06-22T07:44:00;24.16;68.16
69084;SHT31;56185;48.526;9.044;2023-06-22T07:46:25;24.22;66.93
69084;SHT31;56185;48.526;9.044;2023-06-22T07:48:51;24.33;66.26
69084;SHT31;56185;48.526;9.044;2023-06-22T07:51:16;24.44;66.34
69084;SHT31;56185;48.526;9.044;2023-06-22T07:53:55;24.52;66.76
69084;SHT31;56185;48.526;9.044;2023-06-22T07:56:20;24.60;65.30
69084;SHT31;56185;48.526;9.044;2023-06-22T07:58:46;24.57;66.25
69084;SHT31;56185;48.526;9.044;2023-06-22T08:01:12;24.56;65.80
69084;SHT31;56185;48.526;9.044;2023-06-22T08:03:37;24.84;64.73
69084;SHT31;56185;48.526;9.044;2023-06-22T08:06:03;24.76;64.76
69084;SHT31;56185;48.526;9.044;2023-06-22T08:08:28;24.78;64.47
69084;SHT31;56185;48.526;9.044;2023-06-22T08:10:53;24.81;65.36
69084;SHT31;56185;48.526;9.044;2023-06-22T08:13:19;24.92;64.44
69084;SHT31;56185;48.526;9.044;2023-06-22T08:15:44;24.90;65.64
69084;SHT31;56185;48.526;9.044;2023-06-22T08:18:09;25.01;65.62
69084;SHT31;56185;48.526;9.044;2023-06-22T08:20:34;25.10;64.65
69084;SHT31;56185;48.526;9.044;2023-06-22T08:23:00;25.07;66.31
69084;SHT31;56185;48.526;9.044;2023-06-22T08:25:25;25.17;66.20
69084;SHT31;56185;48.526;9.044;2023-06-22T08:27:50;25.27;66.11
69084;SHT31;56185;48.526;9.044;2023-06-22T08:30:16;25.43;65.48
69084;SHT31;56185;48.526;9.044;2023-06-22T08:32:41;25.45;64.09
69084;SHT31;56185;48.526;9.044;2023-06-22T08:35:07;25.52;64.90
69084;SHT31;56185;48.526;9.044;2023-06-22T08:37:32;25.62;63.87
69084;SHT31;56185;48.526;9.044;2023-06-22T08:40:03;25.83;63.44
69084;SHT31;56185;48.526;9.044;2023-06-22T08:42:28;25.93;63.48
69084;SHT31;56185;48.526;9.044;2023-06-22T08:44:53;25.83;63.19
69084;SHT31;56185;48.526;9.044;2023-06-22T08:47:19;25.77;62.27
69084;SHT31;56185;48.526;9.044;2023-06-22T08:49:44;25.75;62.37
69084;SHT31;56185;48.526;9.044;2023-06-22T08:52:09;25.62;63.77
69084;SHT31;56185;48.526;9.044;2023-06-22T08:54:35;25.66;63.07
69084;SHT31;56185;48.526;9.044;2023-06-22T08:57:01;25.86;63.79
69084;SHT31;56185;48.526;9.044;2023-06-22T08:59:26;26.00;62.73
69084;SHT31;56185;48.526;9.044;2023-06-22T09:01:52;26.06;63.55
69084;SHT31;56185;48.526;9.044;2023-06-22T09:04:17;26.03;62.71
69084;SHT31;56185;48.526;9.044;2023-06-22T09:06:45;26.10;63.14
69084;SHT31;56185;48.526;9.044;2023-06-22T09:09:12;26.14;62.89
69084;SHT31;56185;48.526;9.044;2023-06-22T09:11:37;26.18;63.22
69084;SHT31;56185;48.526;9.044;2023-06-22T09:14:03;26.30;63.08
69084;SHT31;56185;48.526;9.044;2023-06-22T09:16:28;26.40;62.56
69084;SHT31;56185;48.526;9.044;2023-06-22T09:18:53;26.44;62.37
69084;SHT31;56185;48.526;9.044;2023-06-22T09:21:18;26.61;62.77
69084;SHT31;56185;48.526;9.044;2023-06-22T09:23:44;26.64;61.78
69084;SHT31;56185;48.526;9.044;2023-06-22T09:26:09;26.67;61.27
69084;SHT31;56185;48.526;9.044;2023-06-22T09:28:34;26.65;61.56
69084;SHT31;56185;48.526;9.044;2023-06-22T09:30:59;26.68;61.81
69084;SHT31;56185;48.526;9.044;2023-06-22T09:33:28;26.65;61.70
69084;SHT31;56185;48.526;9.044;2023-06-22T09:35:53;26.68;61.44
69084;SHT31;56185;48.526;9.044;2023-06-22T09:38:18;26.89;62.29
69084;SHT31;56185;48.526;9.044;2023-06-22T09:40:43;27.05;61.92
69084;SHT31;56185;48.526;9.044;2023-06-22T09:43:09;27.13;60.48
69084;SHT31;56185;48.526;9.044;2023-06-22T09:45:34;27.19;61.01
69084;SHT31;56185;48.526;9.044;2023-06-22T09:48:00;27.33;61.00
69084;SHT31;56185;48.526;9.044;2023-06-22T09:50:26;27.40;60.04
69084;SHT31;56185;48.526;9.044;2023-06-22T09:52:51;27.49;59.45
69084;SHT31;56185;48.526;9.044;2023-06-22T09:55:16;27.43;59.60
69084;SHT31;56185;48.526;9.044;2023-06-22T09:57:41;27.44;59.65
69084;SHT31;56185;48.526;9.044;2023-06-22T10:00:07;27.40;58.86
69084;SHT31;56185;48.526;9.044;2023-06-22T10:02:32;27.54;59.60
69084;SHT31;56185;48.526;9.044;2023-06-22T10:04:58;27.51;60.07
69084;SHT31;56185;48.526;9.044;2023-06-22T10:07:23;27.57;59.51
69084;SHT31;56185;48.526;9.044;2023-06-22T10:09:48;27.70;58.85
69084;SHT31;56185;48.526;9.044;2023-06-22T10:12:13;27.73;57.68
69084;SHT31;56185;48.526;9.044;2023-06-22T10:14:38;27.77;57.46
69084;SHT31;56185;48.526;9.044;2023-06-22T10:17:04;27.81;57.40
69084;SHT31;56185;48.526;9.044;2023-06-22T10:19:29;27.87;57.14
69084;SHT31;56185;48.526;9.044;2023-06-22T10:21:54;27.90;58.18
69084;SHT31;56185;48.526;9.044;2023-06-22T10:24:20;28.00;57.32
69084;SHT31;56185;48.526;9.044;2023-06-22T10:26:45;28.09;54.87
69084;SHT31;56185;48.526;9.044;2023-06-22T10:29:10;28.09;56.48
69084;SHT31;56185;48.526;9.044;2023-06-22T10:31:35;28.16;57.23
69084;SHT31;56185;48.526;9.044;2023-06-22T10:34:01;28.15;56.81
69084;SHT31;56185;48.526;9.044;2023-06-22T10:36:26;28.05;57.12
69084;SHT31;56185;48.526;9.044;2023-06-22T10:38:51;28.15;55.98
69084;SHT31;56185;48.526;9.044;2023-06-22T10:41:16;28.21;56.77
69084;SHT31;56185;48.526;9.044;2023-06-22T10:43:42;28.22;57.12
69084;SHT31;56185;48.526;9.044;2023-06-22T10:46:07;28.22;57.04
69084;SHT31;56185;48.526;9.044;2023-06-22T10:48:33;28.28;55.85
69084;SHT31;56185;48.526;9.044;2023-06-22T10:50:58;28.40;56.88
69084;SHT31;56185;48.526;9.044;2023-06-22T10:53:23;28.31;56.20
69084;SHT31;56185;48.526;9.044;2023-06-22T10:55:48;28.36;54.87
69084;SHT31;56185;48.526;9.044;2023-06-22T10:58:14;28.39;54.99
69084;SHT31;56185;48.526;9.044;2023-06-22T11:00:39;28.45;55.32
69084;SHT31;56185;48.526;9.044;2023-06-22T11:03:04;28.42;55.24
69084;SHT31;56185;48.526;9.044;2023-06-22T11:05:29;28.32;56.48
69084;SHT31;56185;48.526;9.044;2023-06-22T11:07:55;28.39;57.07
69084;SHT31;56185;48.526;9.044;2023-06-22T11:10:20;28.57;55.09
69084;SHT31;56185;48.526;9.044;2023-06-22T11:12:45;28.57;56.08
69084;SHT31;56185;48.526;9.044;2023-06-22T11:15:10;28.57;56.64
69084;SHT31;56185;48.526;9.044;2023-06-22T11:17:36;28.67;56.72
69084;SHT31;56185;48.526;9.044;2023-06-22T11:20:03;28.87;57.19
69084;SHT31;56185;48.526;9.044;2023-06-22T11:22:28;28.87;57.18
69084;SHT31;56185;48.526;9.044;2023-06-22T11:24:53;28.93;56.74
69084;SHT31;56185;48.526;9.044;2023-06-22T11:27:18;29.03;56.86
69084;SHT31;56185;48.526;9.044;2023-06-22T11:29:44;29.18;55.24
69084;SHT31;56185;48.526;9.044;2023-06-22T11:32:09;29.18;55.59
69084;SHT31;56185;48.526;9.044;2023-06-22T11:34:34;29.11;56.12
69084;SHT31;56185;48.526;9.044;2023-06-22T11:37:00;29.17;55.82
69084;SHT31;56185;48.526;9.044;2023-06-22T11:39:25;29.22;54.59
69084;SHT31;56185;48.526;9.044;2023-06-22T11:41:50;29.21;55.74
69084;SHT31;56185;48.526;9.044;2023-06-22T11:44:16;29.25;54.60
69084;SHT31;56185;48.526;9.044;2023-06-22T11:46:41;29.29;54.81
69084;SHT31;56185;48.526;9.044;2023-06-22T11:49:06;29.20;55.55
69084;SHT31;56185;48.526;9.044;2023-06-22T11:51:31;29.22;55.76
69084;SHT31;56185;48.526;9.044;2023-06-22T11:53:57;29.24;56.29
69084;SHT31;56185;48.526;9.044;2023-06-22T11:56:22;29.22;55.57
69084;SHT31;56185;48.526;9.044;2023-06-22T11:58:47;29.24;55.58
69084;SHT31;56185;48.526;9.044;2023-06-22T12:01:13;29.15;56.62
69084;SHT31;56185;48.526;9.044;2023-06-22T12:03:39;29.21;55.85
69084;SHT31;56185;48.526;9.044;2023-06-22T12:06:04;29.17;55.29
69084;SHT31;56185;48.526;9.044;2023-06-22T12:08:30;29.11;55.13
69084;SHT31;56185;48.526;9.044;2023-06-22T12:10:55;29.12;55.89
69084;SHT31;56185;48.526;9.044;2023-06-22T12:13:20;29.17;56.06
69084;SHT31;56185;48.526;9.044;2023-06-22T12:15:45;29.15;55.50
69084;SHT31;56185;48.526;9.044;2023-06-22T12:18:11;29.11;56.33
69084;SHT31;56185;48.526;9.044;2023-06-22T12:20:36;29.15;56.57
69084;SHT31;56185;48.526;9.044;2023-06-22T12:23:01;29.15;57.15
69084;SHT31;56185;48.526;9.044;2023-06-22T12:25:27;29.20;57.54
69084;SHT31;56185;48.526;9.044;2023-06-22T12:27:52;29.21;56.84
69084;SHT31;56185;48.526;9.044;2023-06-22T12:30:17;29.11;57.19
69084;SHT31;56185;48.526;9.044;2023-06-22T12:32:42;29.18;57.09
69084;SHT31;56185;48.526;9.044;2023-06-22T12:35:08;29.25;56.99
69084;SHT31;56185;48.526;9.044;2023-06-22T12:37:33;29.27;57.74
69084;SHT31;56185;48.526;9.044;2023-06-22T12:39:58;29.24;56.36
69084;SHT31;56185;48.526;9.044;2023-06-22T12:42:23;29.21;56.70
69084;SHT31;56185;48.526;9.044;2023-06-22T12:44:49;29.25;57.45
69084;SHT31;56185;48.526;9.044;2023-06-22T12:47:14;29.21;57.93
69084;SHT31;56185;48.526;9.044;2023-06-22T12:49:40;29.27;57.50
69084;SHT31;56185;48.526;9.044;2023-06-22T12:52:09;29.35;56.00
69084;SHT31;56185;48.526;9.044;2023-06-22T12:54:34;29.34;57.22
69084;SHT31;56185;48.526;9.044;2023-06-22T12:56:59;29.37;57.42
69084;SHT31;56185;48.526;9.044;2023-06-22T12:59:24;29.41;57.93
69084;SHT31;56185;48.526;9.044;2023-06-22T13:01:50;29.39;56.73
69084;SHT31;56185;48.526;9.044;2023-06-22T13:04:15;29.41;57.45
69084;SHT31;56185;48.526;9.044;2023-06-22T13:06:52;29.52;57.91
69084;SHT31;56185;48.526;9.044;2023-06-22T13:09:18;29.59;56.30
69084;SHT31;56185;48.526;9.044;2023-06-22T13:11:44;29.68;55.00
69084;SHT31;56185;48.526;9.044;2023-06-22T13:14:09;29.79;55.12
69084;SHT31;56185;48.526;9.044;2023-06-22T13:16:34;29.80;53.78
69084;SHT31;56185;48.526;9.044;2023-06-22T13:19:00;29.86;52.97
69084;SHT31;56185;48.526;9.044;2023-06-22T13:21:25;29.82;54.94
69084;SHT31;56185;48.526;9.044;2023-06-22T13:23:51;29.83;55.75
69084;SHT31;56185;48.526;9.044;2023-06-22T13:26:16;29.93;55.99
69084;SHT31;56185;48.526;9.044;2023-06-22T13:28:41;30.05;53.66
69084;SHT31;56185;48.526;9.044;2023-06-22T13:31:06;29.92;54.52
69084;SHT31;56185;48.526;9.044;2023-06-22T13:33:32;30.09;54.61
69084;SHT31;56185;48.526;9.044;2023-06-22T13:35:57;30.12;54.31
69084;SHT31;56185;48.526;9.044;2023-06-22T13:38:22;30.19;53.50
69084;SHT31;56185;48.526;9.044;2023-06-22T13:40:53;30.20;53.92
69084;SHT31;56185;48.526;9.044;2023-06-22T13:43:19;30.17;55.04
69084;SHT31;56185;48.526;9.044;2023-06-22T13:45:44;30.20;54.66
69084;SHT31;56185;48.526;9.044;2023-06-22T13:48:09;30.26;54.30
69084;SHT31;56185;48.526;9.044;2023-06-22T13:50:34;30.20;54.54
69084;SHT31;56185;48.526;9.044;2023-06-22T13:53:00;30.16;53.99
69084;SHT31;56185;48.526;9.044;2023-06-22T13:55:25;30.14;54.09
69084;SHT31;56185;48.526;9.044;2023-06-22T13:57:50;30.10;54.91
69084;SHT31;56185;48.526;9.044;2023-06-22T14:00:16;30.13;54.56
69084;SHT31;56185;48.526;9.044;2023-06-22T14:02:41;30.09;54.33
69084;SHT31;56185;48.526;9.044;2023-06-22T14:05:07;30.07;55.42
69084;SHT31;56185;48.526;9.044;2023-06-22T14:07:32;30.13;55.40
69084;SHT31;56185;48.526;9.044;2023-06-22T14:09:58;29.93;55.20
69084;SHT31;56185;48.526;9.044;2023-06-22T14:12:24;30.09;55.58
69084;SHT31;56185;48.526;9.044;2023-06-22T14:14:49;30.21;55.02
69084;SHT31;56185;48.526;9.044;2023-06-22T14:17:14;30.30;54.41
69084;SHT31;56185;48.526;9.044;2023-06-22T14:19:40;30.44;54.17
69084;SHT31;56185;48.526;9.044;2023-06-22T14:22:05;30.43;54.56
69084;SHT31;56185;48.526;9.044;2023-06-22T14:24:30;30.49;55.12
69084;SHT31;56185;48.526;9.044;2023-06-22T14:26:56;30.58;55.06
69084;SHT31;56185;48.526;9.044;2023-06-22T14:29:21;30.78;54.95
69084;SHT31;56185;48.526;9.044;2023-06-22T14:31:47;30.92;54.68
69084;SHT31;56185;48.526;9.044;2023-06-22T14:34:27;30.99;53.73
69084;SHT31;56185;48.526;9.044;2023-06-22T14:36:52;31.11;54.61
69084;SHT31;56185;48.526;9.044;2023-06-22T14:39:17;31.21;54.18
69084;SHT31;56185;48.526;9.044;2023-06-22T14:41:43;31.27;53.24
69084;SHT31;56185;48.526;9.044;2023-06-22T14:44:08;31.26;53.61
69084;SHT31;56185;48.526;9.044;2023-06-22T14:46:33;31.16;52.32
69084;SHT31;56185;48.526;9.044;2023-06-22T14:49:00;31.15;50.83
69084;SHT31;56185;48.526;9.044;2023-06-22T14:51:25;31.02;48.77
69084;SHT31;56185;48.526;9.044;2023-06-22T14:54:08;31.08;44.83
69084;SHT31;56185;48.526;9.044;2023-06-22T14:56:33;31.08;43.04
69084;SHT31;56185;48.526;9.044;2023-06-22T14:59:09;30.99;42.02
69084;SHT31;56185;48.526;9.044;2023-06-22T15:01:34;30.92;41.00
69084;SHT31;56185;48.526;9.044;2023-06-22T15:04:00;30.89;40.74
69084;SHT31;56185;48.526;9.044;2023-06-22T15:06:26;30.96;40.57
69084;SHT31;56185;48.526;9.044;2023-06-22T15:08:51;30.85;41.07
69084;SHT31;56185;48.526;9.044;2023-06-22T15:11:16;30.85;40.34
69084;SHT31;56185;48.526;9.044;2023-06-22T15:13:42;30.78;39.00
69084;SHT31;56185;48.526;9.044;2023-06-22T15:16:08;30.74;39.02
69084;SHT31;56185;48.526;9.044;2023-06-22T15:18:33;30.63;39.74
69084;SHT31;56185;48.526;9.044;2023-06-22T15:20:59;30.56;39.45
69084;SHT31;56185;48.526;9.044;2023-06-22T15:23:24;30.61;39.69
69084;SHT31;56185;48.526;9.044;2023-06-22T15:25:49;30.53;40.58